Time;durP1;ratioP1;P1;durP2;ratioP2;P2;SDS_P1;SDS_P2;PMS_P1;PMS_P2;Temp;Humidity;BMP_temperature;BMP_pressure;BME280_temperature;BME280_humidity;BME280_pressure;Samples;Min_cycle;Max_cycle;Signal;HPM_P1;HPM_P2
2023/04/16 00:01:09;;;;;;;35.87;32.73;;;;;;;9.16;100.00;102014.19;5055460;28;20459;-45
2023/04/16 00:03:37;;;;;;;38.40;35.20;;;;;;;9.18;100.00;102016.66;5054995;28;20435;-49
2023/04/16 00:06:06;;;;;;;36.70;33.90;;;;;;;9.13;100.00;102014.50;5055724;28;20871;-46
2023/04/16 00:08:34;;;;;;;37.70;34.70;;;;;;;9.18;100.00;102011.34;5055203;28;20431;-49
2023/04/16 00:11:02;;;;;;;36.83;33.93;;;;;;;9.17;100.00;102015.84;5054698;28;20899;-48
2023/04/16 00:13:30;;;;;;;35.43;32.67;;;;;;;9.12;100.00;102017.28;5055136;28;20430;-51
2023/04/16 00:15:57;;;;;;;35.47;32.77;;;;;;;9.16;100.00;102016.84;5055151;28;20987;-47
2023/04/16 00:18:26;;;;;;;36.27;33.67;;;;;;;9.15;100.00;102030.28;5055379;28;20438;-44
2023/04/16 00:20:54;;;;;;;36.13;33.20;;;;;;;9.11;100.00;102019.13;5053726;28;20493;-45
2023/04/16 00:23:24;;;;;;;35.03;32.33;;;;;;;9.14;100.00;102025.97;5055043;28;20884;-50
2023/04/16 00:25:52;;;;;;;34.73;32.13;;;;;;;9.11;100.00;102027.09;5054509;28;20487;-48
2023/04/16 00:28:20;;;;;;;36.60;34.00;;;;;;;9.13;100.00;102029.63;5054546;28;20438;-47
2023/04/16 00:30:48;;;;;;;36.03;33.43;;;;;;;9.12;100.00;102026.13;5054861;28;20459;-45
2023/04/16 00:33:15;;;;;;;34.77;32.17;;;;;;;9.13;100.00;102013.66;5055277;28;20561;-45
2023/04/16 00:35:47;;;;;;;34.40;31.60;;;;;;;9.09;100.00;102020.28;5053961;28;20871;-47
2023/04/16 00:38:15;;;;;;;35.53;32.80;;;;;;;9.08;100.00;102022.09;5054437;28;20482;-46
2023/04/16 00:40:42;;;;;;;34.50;31.77;;;;;;;9.07;100.00;102024.91;5053723;28;20512;-43
2023/04/16 00:43:10;;;;;;;36.40;33.40;;;;;;;9.04;100.00;102023.41;5054333;28;20493;-44
2023/04/16 00:45:38;;;;;;;37.00;34.10;;;;;;;9.02;100.00;102030.69;5054161;28;20475;-52
2023/04/16 00:48:05;;;;;;;36.20;33.17;;;;;;;9.00;100.00;102031.84;5054189;28;20433;-47
2023/04/16 00:50:33;;;;;;;35.90;33.10;;;;;;;8.99;100.00;102025.69;5048159;28;20471;-47
2023/04/16 00:53:03;;;;;;;38.00;35.00;;;;;;;8.99;100.00;102032.84;5053274;28;20992;-49
2023/04/16 00:55:31;;;;;;;37.03;34.20;;;;;;;8.99;100.00;102027.53;5051494;28;20513;-44
2023/04/16 00:57:58;;;;;;;37.57;34.60;;;;;;;8.97;100.00;102033.00;5053012;28;20553;-48
2023/04/16 01:00:26;;;;;;;36.33;33.67;;;;;;;8.95;100.00;102023.50;5053049;28;20442;-45
2023/04/16 01:02:54;;;;;;;37.67;34.77;;;;;;;8.87;100.00;102022.44;5047596;28;20467;-45
2023/04/16 01:05:22;;;;;;;36.60;33.60;;;;;;;8.89;100.00;102032.94;5052293;28;20794;-45
2023/04/16 01:07:51;;;;;;;36.50;33.37;;;;;;;8.86;100.00;102027.94;5052242;28;20446;-46
2023/04/16 01:10:20;;;;;;;38.23;34.80;;;;;;;8.89;100.00;102028.47;5053131;28;20607;-48
2023/04/16 01:12:48;;;;;;;37.00;34.10;;;;;;;8.93;100.00;102023.63;5052056;28;21015;-45
2023/04/16 01:15:15;;;;;;;37.60;34.60;;;;;;;8.87;100.00;102021.59;5052732;28;20451;-50
2023/04/16 01:17:45;;;;;;;35.67;32.90;;;;;;;8.89;100.00;102024.97;5052609;28;20538;-43
2023/04/16 01:20:13;;;;;;;37.57;34.37;;;;;;;8.90;100.00;102030.09;5052578;28;20439;-46
2023/04/16 01:22:42;;;;;;;36.13;33.30;;;;;;;8.84;100.00;102027.25;5051028;28;20527;-48
2023/04/16 01:25:14;;;;;;;37.00;34.20;;;;;;;8.84;100.00;102037.91;5052354;28;20830;-43
2023/04/16 01:27:42;;;;;;;36.47;33.60;;;;;;;8.83;100.00;102033.56;5052368;28;20475;-45
2023/04/16 01:30:10;;;;;;;36.00;33.00;;;;;;;8.82;100.00;102029.22;5051770;28;20431;-48
2023/04/16 01:32:38;;;;;;;35.43;32.53;;;;;;;8.82;100.00;102034.53;5048531;28;21000;-48
2023/04/16 01:35:06;;;;;;;35.10;32.37;;;;;;;8.83;100.00;102030.91;5052093;28;20877;-47
2023/04/16 01:37:33;;;;;;;38.20;35.07;;;;;;;8.80;100.00;102033.84;5051856;28;20431;-45
2023/04/16 01:40:03;;;;;;;36.20;33.43;;;;;;;8.84;100.00;102033.38;5052471;28;20438;-45
2023/04/16 01:42:30;;;;;;;38.40;35.30;;;;;;;8.84;100.00;102033.38;5051021;28;20463;-45
2023/04/16 01:44:58;;;;;;;39.57;36.47;;;;;;;8.85;100.00;102039.53;5051905;28;20474;-46
2023/04/16 01:47:26;;;;;;;38.10;34.97;;;;;;;8.82;100.00;102034.53;5051809;28;20524;-43
2023/04/16 01:49:54;;;;;;;40.00;36.67;;;;;;;8.87;100.00;102037.56;5052148;28;20431;-44
2023/04/16 01:52:22;;;;;;;38.57;35.20;;;;;;;8.82;100.00;102030.06;5051196;28;20544;-49
2023/04/16 01:54:50;;;;;;;39.33;35.77;;;;;;;8.78;100.00;102036.66;5051823;28;20459;-49
2023/04/16 01:57:19;;;;;;;39.70;36.30;;;;;;;8.77;100.00;102031.50;5052030;28;20428;-45
2023/04/16 01:59:46;;;;;;;39.37;36.27;;;;;;;8.79;100.00;102029.53;5051652;28;20427;-45
2023/04/16 02:02:16;;;;;;;39.13;36.10;;;;;;;8.82;100.00;102034.53;5050001;28;20463;-46
2023/04/16 02:04:45;;;;;;;38.67;35.60;;;;;;;8.84;100.00;102032.56;5051948;28;20454;-49
2023/04/16 02:07:13;;;;;;;37.03;33.83;;;;;;;8.84;100.00;102040.56;5051162;28;20474;-46
2023/04/16 02:09:41;;;;;;;37.23;34.27;;;;;;;8.83;100.00;102036.22;5051269;28;20431;-49
2023/04/16 02:12:10;;;;;;;37.10;33.80;;;;;;;8.84;100.00;102043.22;5050490;28;20463;-45
2023/04/16 02:14:39;;;;;;;37.23;34.40;;;;;;;8.80;100.00;102029.38;5051479;28;20965;-45
2023/04/16 02:17:06;;;;;;;37.23;33.83;;;;;;;8.78;100.00;102038.50;5051378;28;20438;-44
2023/04/16 02:19:35;;;;;;;37.10;34.00;;;;;;;8.74;100.00;102034.47;5051403;28;20942;-46
2023/04/16 02:22:03;;;;;;;36.37;33.27;;;;;;;8.82;100.00;102037.19;5050760;28;20960;-46
2023/04/16 02:24:31;;;;;;;36.87;34.13;;;;;;;8.76;100.00;102035.16;5050807;28;20451;-44
2023/04/16 02:26:58;;;;;;;37.27;34.07;;;;;;;8.71;100.00;102030.31;5051024;28;20479;-46
2023/04/16 02:29:26;;;;;;;35.50;32.60;;;;;;;8.74;100.00;102035.31;5051122;28;20534;-46
2023/04/16 02:31:55;;;;;;;38.23;34.53;;;;;;;8.73;100.00;102027.47;5048007;28;20846;-47
2023/04/16 02:34:23;;;;;;;37.53;34.70;;;;;;;8.76;100.00;102035.97;5050878;28;20991;-43
2023/04/16 02:36:51;;;;;;;37.33;34.47;;;;;;;8.79;100.00;102029.53;5051150;28;20439;-43
2023/04/16 02:39:18;;;;;;;37.50;34.30;;;;;;;8.85;100.00;102039.53;5051153;28;20780;-45
2023/04/16 02:41:46;;;;;;;34.90;32.40;;;;;;;8.88;100.00;102028.59;5050295;28;20459;-48
2023/04/16 02:44:14;;;;;;;36.67;33.77;;;;;;;8.88;100.00;102040.06;5050616;28;20550;-48
2023/04/16 02:46:42;;;;;;;39.03;35.83;;;;;;;8.86;100.00;102042.06;5051459;28;20562;-50
2023/04/16 02:49:11;;;;;;;37.47;34.20;;;;;;;8.86;100.00;102046.53;5050673;28;20959;-44
2023/04/16 02:51:38;;;;;;;36.30;33.40;;;;;;;8.86;100.00;102034.09;5049996;28;20493;-45
2023/04/16 02:54:06;;;;;;;38.23;35.00;;;;;;;8.87;100.00;102050.84;5050863;28;20554;-47
2023/04/16 02:56:34;;;;;;;35.27;32.23;;;;;;;8.85;100.00;102050.19;5050758;28;20965;-47
2023/04/16 02:59:02;;;;;;;37.10;34.27;;;;;;;8.86;100.00;102054.53;5050446;28;20439;-44
2023/04/16 03:01:29;;;;;;;36.27;33.47;;;;;;;8.86;100.00;102060.69;5050457;28;20986;-43
2023/04/16 03:03:57;;;;;;;38.53;35.33;;;;;;;8.87;100.00;102056.19;5044093;28;20467;-44
2023/04/16 03:06:26;;;;;;;35.90;32.90;;;;;;;8.86;100.00;102052.72;5050422;28;20435;-44
2023/04/16 03:08:54;;;;;;;37.43;34.40;;;;;;;8.87;100.00;102042.88;5050393;28;20438;-47
2023/04/16 03:11:22;;;;;;;37.37;34.47;;;;;;;8.84;100.00;102056.50;5050606;28;20835;-48
2023/04/16 03:13:50;;;;;;;38.80;35.60;;;;;;;8.83;100.00;102042.38;5049246;28;20534;-45
2023/04/16 03:16:18;;;;;;;35.10;32.47;;;;;;;8.85;100.00;102045.72;5050090;28;20429;-45
2023/04/16 03:18:46;;;;;;;36.67;33.63;;;;;;;8.85;100.00;102055.50;5049385;28;20431;-45
2023/04/16 03:21:13;;;;;;;35.00;32.30;;;;;;;8.88;100.00;102055.19;5050282;28;20443;-46
2023/04/16 03:23:42;;;;;;;36.13;33.10;;;;;;;8.90;100.00;102056.72;5049627;28;20821;-45
2023/04/16 03:26:10;;;;;;;36.37;33.17;;;;;;;8.88;100.00;102061.34;5049996;28;20555;-46
2023/04/16 03:28:38;;;;;;;39.10;35.83;;;;;;;8.87;100.00;102062.34;5050422;28;20477;-44
2023/04/16 03:31:05;;;;;;;37.53;34.33;;;;;;;8.92;100.00;102058.41;5049753;28;20434;-44
2023/04/16 03:33:33;;;;;;;37.67;34.67;;;;;;;8.93;100.00;102060.88;5047698;28;20471;-46
2023/04/16 03:36:01;;;;;;;36.07;33.27;;;;;;;8.93;100.00;102052.91;5050473;28;20504;-50
2023/04/16 03:38:28;;;;;;;35.93;33.07;;;;;;;8.96;100.00;102060.56;5050315;28;20988;-45
2023/04/16 03:40:57;;;;;;;35.20;32.50;;;;;;;8.93;100.00;102063.53;5050025;28;20489;-47
2023/04/16 03:43:25;;;;;;;35.97;33.30;;;;;;;8.97;100.00;102059.59;5049278;28;20459;-45
2023/04/16 03:45:53;;;;;;;35.83;33.13;;;;;;;8.96;100.00;102060.56;5049775;28;20852;-50
2023/04/16 03:48:20;;;;;;;37.07;34.13;;;;;;;8.96;100.00;102065.09;5050213;28;20859;-44
2023/04/16 03:50:48;;;;;;;36.63;33.57;;;;;;;8.94;100.00;102064.38;5049696;28;20761;-47
2023/04/16 03:53:15;;;;;;;38.17;35.10;;;;;;;8.95;100.00;102074.06;5049240;28;20459;-44
2023/04/16 03:55:43;;;;;;;39.13;35.60;;;;;;;8.94;100.00;102067.88;5049753;28;20470;-46
2023/04/16 03:58:12;;;;;;;36.43;33.67;;;;;;;8.93;100.00;102068.06;5049826;28;20431;-48
2023/04/16 04:00:41;;;;;;;35.33;32.73;;;;;;;8.95;100.00;102068.72;5050237;28;20423;-46
2023/04/16 04:03:09;;;;;;;37.80;34.97;;;;;;;8.95;100.00;102066.06;5047788;28;20459;-47
2023/04/16 04:05:37;;;;;;;36.57;33.93;;;;;;;8.97;100.00;102077.38;5049988;28;20481;-47
2023/04/16 04:08:05;;;;;;;38.20;35.20;;;;;;;8.98;100.00;102077.25;5049685;28;20474;-45
2023/04/16 04:10:33;;;;;;;37.10;34.30;;;;;;;8.98;100.00;102073.75;5049791;28;20428;-48
2023/04/16 04:13:02;;;;;;;36.10;33.33;;;;;;;8.99;100.00;102078.09;5048035;28;20466;-44
2023/04/16 04:15:31;;;;;;;35.57;32.87;;;;;;;8.98;100.00;102081.72;5048694;28;20989;-45
2023/04/16 04:17:59;;;;;;;35.93;32.93;;;;;;;8.98;100.00;102082.56;5049012;28;20525;-44
2023/04/16 04:20:27;;;;;;;36.40;33.53;;;;;;;8.98;100.00;102085.22;5048846;28;20481;-44
2023/04/16 04:22:55;;;;;;;37.37;34.47;;;;;;;8.97;100.00;102085.38;5048226;28;20992;-45
2023/04/16 04:25:23;;;;;;;37.67;34.53;;;;;;;8.97;100.00;102085.38;5048333;28;20566;-44
2023/04/16 04:27:50;;;;;;;36.57;33.53;;;;;;;8.98;100.00;102087.03;5049057;28;20512;-44
2023/04/16 04:30:18;;;;;;;38.90;35.80;;;;;;;8.98;100.00;102089.72;5049655;28;21139;-45
2023/04/16 04:32:47;;;;;;;39.37;36.10;;;;;;;8.97;100.00;102091.53;5052044;28;20446;-44
2023/04/16 04:35:15;;;;;;;38.37;34.80;;;;;;;9.00;100.00;102093.03;5046447;28;20474;-48
2023/04/16 04:37:43;;;;;;;39.67;36.23;;;;;;;9.02;100.00;102091.88;5052717;28;20438;-44
2023/04/16 04:40:11;;;;;;;38.50;35.07;;;;;;;9.03;100.00;102093.56;5052962;28;20435;-46
2023/04/16 04:42:39;;;;;;;36.80;34.00;;;;;;;9.04;100.00;102097.91;5052056;28;20832;-45
2023/04/16 04:45:08;;;;;;;38.50;35.50;;;;;;;9.08;100.00;102093.94;5051963;28;20482;-48
2023/04/16 04:47:35;;;;;;;39.43;35.90;;;;;;;9.11;100.00;102098.94;5052547;28;20471;-44
2023/04/16 04:50:06;;;;;;;38.80;35.90;;;;;;;9.15;100.00;102100.31;5053235;28;20816;-48
2023/04/16 04:52:33;;;;;;;38.50;35.50;;;;;;;9.14;100.00;102098.66;5052912;28;20476;-46
2023/04/16 04:55:01;;;;;;;38.90;35.83;;;;;;;9.20;100.00;102095.38;5052995;28;20467;-47
2023/04/16 04:57:29;;;;;;;35.73;32.83;;;;;;;9.20;100.00;102095.38;5052471;28;20431;-47
2023/04/16 04:59:56;;;;;;;36.20;33.30;;;;;;;9.19;100.00;102095.53;5052046;28;20436;-45
2023/04/16 05:02:24;;;;;;;36.60;33.73;;;;;;;9.23;100.00;102103.03;5053239;28;20799;-48
2023/04/16 05:04:52;;;;;;;36.90;34.00;;;;;;;9.27;100.00;102101.75;5051527;28;20875;-44
2023/04/16 05:07:22;;;;;;;38.10;35.00;;;;;;;9.28;100.00;102099.94;5049623;28;20966;-47
2023/04/16 05:09:49;;;;;;;36.60;33.67;;;;;;;9.24;100.00;102102.06;5051753;28;20874;-44
2023/04/16 05:12:17;;;;;;;37.80;34.30;;;;;;;9.25;100.00;102093.09;5053096;28;20435;-48
2023/04/16 05:14:45;;;;;;;35.13;32.43;;;;;;;9.28;100.00;102098.09;5052363;28;20470;-45
2023/04/16 05:17:13;;;;;;;38.67;35.67;;;;;;;9.31;100.00;102100.47;5051954;28;20424;-44
2023/04/16 05:19:40;;;;;;;37.37;34.70;;;;;;;9.31;100.00;102113.78;5050106;28;20444;-48
2023/04/16 05:22:08;;;;;;;39.90;36.80;;;;;;;9.36;100.00;102103.47;5051430;28;20431;-46
2023/04/16 05:24:37;;;;;;;38.30;35.30;;;;;;;9.40;100.00;102102.19;5051409;28;20467;-46
2023/04/16 05:27:05;;;;;;;40.50;36.93;;;;;;;9.43;100.00;102106.38;5052220;28;20428;-46
2023/04/16 05:29:33;;;;;;;37.43;34.13;;;;;;;9.44;100.00;102116.00;5052195;28;20947;-44
2023/04/16 05:32:00;;;;;;;36.77;33.73;;;;;;;9.43;100.00;102120.53;5052350;28;20446;-46
2023/04/16 05:34:28;;;;;;;36.53;33.73;;;;;;;9.48;100.00;102120.03;5051715;28;21050;-47
2023/04/16 05:36:56;;;;;;;37.83;34.80;;;;;;;9.52;100.00;102116.09;5051519;28;20425;-47
2023/04/16 05:39:23;;;;;;;36.80;33.80;;;;;;;9.51;100.00;102116.22;5050981;28;20770;-46
2023/04/16 05:41:52;;;;;;;37.53;34.53;;;;;;;9.57;100.00;102121.78;5050621;28;20469;-43
2023/04/16 05:44:20;;;;;;;39.50;36.20;;;;;;;9.52;100.00;102131.22;5051736;28;20996;-49
2023/04/16 05:46:48;;;;;;;38.57;35.67;;;;;;;9.52;100.00;102124.06;5051305;28;20424;-51
2023/04/16 05:49:17;;;;;;;39.37;36.13;;;;;;;9.57;100.00;102134.25;5047378;28;20550;-47
2023/04/16 05:51:45;;;;;;;38.27;35.20;;;;;;;9.58;100.00;102123.44;5050985;28;20423;-44
2023/04/16 05:54:12;;;;;;;40.60;37.20;;;;;;;9.59;100.00;102129.63;5050322;28;20472;-45
2023/04/16 05:56:40;;;;;;;41.20;37.80;;;;;;;9.62;100.00;102126.59;5049992;28;20459;-49
2023/04/16 05:59:09;;;;;;;38.50;35.23;;;;;;;9.62;100.00;102127.44;5050541;28;20778;-49
2023/04/16 06:01:37;;;;;;;38.60;35.37;;;;;;;9.67;100.00;102137.66;5050028;28;21015;-48
2023/04/16 06:04:05;;;;;;;37.57;34.40;;;;;;;9.68;100.00;102141.97;5050157;28;20454;-46
2023/04/16 06:06:33;;;;;;;38.53;35.40;;;;;;;9.72;100.00;102136.19;5048109;28;20483;-47
2023/04/16 06:09:00;;;;;;;38.73;35.47;;;;;;;9.77;100.00;102138.38;5049577;28;20471;-45
2023/04/16 06:11:29;;;;;;;37.33;34.30;;;;;;;9.79;100.00;102141.72;5050257;28;20656;-46
2023/04/16 06:13:57;;;;;;;37.33;34.30;;;;;;;9.82;100.00;102138.75;5049676;28;20467;-43
2023/04/16 06:16:26;;;;;;;37.10;34.03;;;;;;;9.89;100.00;102147.75;5050121;28;20481;-43
2023/04/16 06:18:54;;;;;;;38.73;35.30;;;;;;;9.90;100.00;102149.44;5049656;28;20984;-44
2023/04/16 06:21:21;;;;;;;37.03;34.03;;;;;;;9.95;100.00;102147.13;5050032;28;20515;-45
2023/04/16 06:23:49;;;;;;;38.27;34.90;;;;;;;9.93;100.00;102154.47;5049805;28;20462;-44
2023/04/16 06:26:17;;;;;;;35.33;32.50;;;;;;;9.96;100.00;102146.16;5049792;28;20466;-46
2023/04/16 06:28:44;;;;;;;37.63;34.20;;;;;;;9.95;100.00;102160.44;5050023;28;21069;-46
2023/04/16 06:31:12;;;;;;;36.97;33.50;;;;;;;9.90;100.00;102149.44;5049098;28;20423;-44
2023/04/16 06:33:41;;;;;;;35.47;32.70;;;;;;;9.94;100.00;102158.81;5049152;28;20554;-44
2023/04/16 06:36:10;;;;;;;38.90;35.80;;;;;;;10.00;100.00;102158.16;5049410;28;20451;-46
2023/04/16 06:38:38;;;;;;;36.30;33.47;;;;;;;10.01;100.00;102152.66;5049942;28;20431;-46
2023/04/16 06:41:05;;;;;;;37.13;34.13;;;;;;;10.05;100.00;102158.53;5049968;28;20434;-47
2023/04/16 06:43:33;;;;;;;37.37;34.07;;;;;;;10.12;100.00;102158.72;5048597;28;20459;-49
2023/04/16 06:46:00;;;;;;;38.30;35.13;;;;;;;10.16;100.00;102163.59;5049062;28;20451;-46
2023/04/16 06:48:28;;;;;;;36.80;33.90;;;;;;;10.17;100.00;102162.63;5048573;28;20427;-50
2023/04/16 06:50:57;;;;;;;37.93;34.80;;;;;;;10.26;100.00;102167.00;5049367;28;20451;-47
2023/04/16 06:53:25;;;;;;;36.40;33.80;;;;;;;10.29;100.00;102172.00;5047858;28;20452;-44
2023/04/16 06:55:53;;;;;;;36.40;33.50;;;;;;;10.26;100.00;102160.81;5049210;28;20463;-47
2023/04/16 06:58:21;;;;;;;36.97;34.07;;;;;;;10.25;100.00;102172.47;5050244;28;20455;-45
2023/04/16 07:00:49;;;;;;;36.90;33.90;;;;;;;10.28;100.00;102169.47;5050699;28;20423;-47
2023/04/16 07:03:17;;;;;;;39.40;36.50;;;;;;;10.22;100.00;102178.97;5046899;28;20821;-47
2023/04/16 07:05:45;;;;;;;37.53;34.70;;;;;;;10.19;100.00;102179.28;5049901;28;20825;-46
2023/04/16 07:08:14;;;;;;;38.10;34.90;;;;;;;10.21;100.00;102173.78;5050853;28;20435;-44
2023/04/16 07:10:42;;;;;;;37.37;34.17;;;;;;;10.29;100.00;102173.81;5058155;22;20509;-45
2023/04/16 07:13:09;;;;;;;38.07;35.03;;;;;;;10.33;100.00;102178.69;5047216;28;20435;-45
2023/04/16 07:15:37;;;;;;;36.47;33.60;;;;;;;10.27;100.00;102187.34;5049671;28;20975;-45
2023/04/16 07:18:05;;;;;;;39.00;35.70;;;;;;;10.33;100.00;102176.03;5048809;28;20438;-45
2023/04/16 07:20:32;;;;;;;36.67;33.50;;;;;;;10.41;100.00;102180.53;5049397;28;20458;-45
2023/04/16 07:23:00;;;;;;;36.30;33.50;;;;;;;10.45;100.00;102179.25;5047149;28;20423;-45
2023/04/16 07:25:29;;;;;;;37.63;34.60;;;;;;;10.62;100.00;102180.13;5049716;28;20435;-44
2023/04/16 07:27:57;;;;;;;37.50;34.50;;;;;;;10.66;100.00;102178.81;5048181;28;20989;-47
2023/04/16 07:30:31;;;;;;;37.40;34.33;;;;;;;10.62;100.00;102178.28;5049017;28;20475;-45
2023/04/16 07:32:59;;;;;;;37.43;34.20;;;;;;;10.76;100.00;102180.31;5043651;28;20509;-49
2023/04/16 07:35:26;;;;;;;39.60;36.40;;;;;;;10.91;100.00;102177.84;5048550;28;20437;-44
2023/04/16 07:37:54;;;;;;;36.93;33.70;;;;;;;10.98;100.00;102177.06;5049088;28;20815;-50
2023/04/16 07:40:23;;;;;;;36.60;33.70;;;;;;;11.06;100.00;102179.72;5043703;28;20450;-46
2023/04/16 07:42:52;;;;;;;38.33;34.70;;;;;;;11.17;100.00;102183.09;5048717;28;20924;-43
2023/04/16 07:45:20;;;;;;;35.67;32.77;;;;;;;11.20;100.00;102188.09;5047988;28;20463;-44
2023/04/16 07:47:48;;;;;;;34.53;31.93;;;;;;;11.21;100.00;102179.91;5048294;28;20431;-50
2023/04/16 07:50:18;;;;;;;36.27;33.47;;;;;;;11.21;100.00;102179.91;5049290;28;20463;-52
2023/04/16 07:52:46;;;;;;;35.60;32.93;;;;;;;11.26;100.00;102188.25;5050379;28;20980;-50
2023/04/16 07:55:14;;;;;;;35.13;32.23;;;;;;;11.30;100.00;102186.09;5048846;28;20463;-48
2023/04/16 07:57:42;;;;;;;36.40;33.57;;;;;;;11.30;100.00;102200.28;5048879;28;20457;-52
2023/04/16 08:00:12;;;;;;;36.47;33.57;;;;;;;11.32;100.00;102192.91;5048163;28;20447;-48
2023/04/16 08:02:40;;;;;;;36.27;33.40;;;;;;;11.41;100.00;102197.28;5049813;28;20847;-45
2023/04/16 08:05:09;;;;;;;35.77;32.87;;;;;;;11.43;100.00;102195.28;5047265;28;20992;-45
2023/04/16 08:07:37;;;;;;;37.13;34.17;;;;;;;11.44;100.00;102202.28;5052971;28;20457;-45
2023/04/16 08:10:06;;;;;;;35.10;32.50;;;;;;;11.45;100.00;102200.44;5053371;28;20471;-46
2023/04/16 08:12:33;;;;;;;36.70;33.20;;;;;;;11.59;100.00;102200.59;5053164;28;20507;-51
2023/04/16 08:15:01;;;;;;;34.97;32.10;;;;;;;11.62;100.00;102210.97;5053608;28;20454;-46
2023/04/16 08:17:31;;;;;;;38.60;35.80;;;;;;;11.75;100.00;102204.31;5053750;28;20434;-45
2023/04/16 08:20:00;;;;;;;34.33;31.70;;;;;;;11.74;100.00;102203.47;5053326;28;20458;-48
2023/04/16 08:22:28;;;;;;;35.70;32.90;;;;;;;11.79;100.00;102211.00;5053021;28;20824;-46
2023/04/16 08:24:56;;;;;;;35.23;32.33;;;;;;;11.88;100.00;102201.97;5052713;28;20982;-44
2023/04/16 08:27:23;;;;;;;35.87;33.07;;;;;;;11.93;100.00;102212.97;5053157;28;20554;-49
2023/04/16 08:29:51;;;;;;;36.20;33.23;;;;;;;11.90;100.00;102218.66;5052843;28;20470;-46
2023/04/16 08:32:19;;;;;;;34.50;31.80;;;;;;;11.99;100.00;102218.47;5053089;28;20454;-45
2023/04/16 08:34:48;;;;;;;34.23;31.83;;;;;;;11.90;100.00;102224.84;5050280;28;20466;-45
2023/04/16 08:37:16;;;;;;;33.40;30.90;;;;;;;12.07;100.00;102223.81;5052737;28;20428;-50
2023/04/16 08:39:43;;;;;;;35.03;32.33;;;;;;;12.25;100.00;102217.41;5052650;28;20453;-43
2023/04/16 08:42:15;;;;;;;35.47;32.63;;;;;;;12.37;100.00;102230.25;5053329;28;20451;-45
2023/04/16 08:44:47;;;;;;;36.43;33.23;;;;;;;12.44;100.00;102231.22;5053060;28;20451;-43
2023/04/16 08:47:16;;;;;;;36.40;33.10;;;;;;;12.45;100.00;102232.06;5048566;28;20435;-46
2023/04/16 08:49:45;;;;;;;36.20;33.20;;;;;;;12.43;100.00;102232.22;5053319;28;20822;-43
2023/04/16 08:52:19;;;;;;;36.10;33.10;;;;;;;12.47;100.00;102227.38;5053179;28;20465;-44
2023/04/16 08:54:53;;;;;;;34.90;32.30;;;;;;;12.51;100.00;102237.56;5048591;28;20800;-48
2023/04/16 08:57:26;;;;;;;35.80;33.10;;;;;;;12.53;100.00;102232.03;5050782;28;20431;-44
2023/04/16 08:59:56;;;;;;;31.40;29.20;;;;;;;12.44;100.00;102230.38;5050876;28;20424;-44
2023/04/16 09:02:26;;;;;;;30.70;28.60;;;;;;;12.41;100.00;102242.28;5053130;28;20424;-49
2023/04/16 09:04:56;;;;;;;33.13;30.63;;;;;;;12.54;100.00;102245.25;5050303;28;20524;-45
2023/04/16 09:07:27;;;;;;;33.23;30.73;;;;;;;12.63;100.00;102244.19;5052781;28;20427;-45
2023/04/16 09:09:55;;;;;;;32.53;30.27;;;;;;;12.46;100.00;102247.94;5052482;28;20547;-45
2023/04/16 09:12:24;;;;;;;33.50;30.97;;;;;;;12.44;100.00;102249.13;5052977;28;20435;-50
2023/04/16 09:14:51;;;;;;;32.50;29.73;;;;;;;12.45;100.00;102250.81;5051100;28;20485;-50
2023/04/16 09:17:19;;;;;;;32.70;30.17;;;;;;;12.53;100.00;102256.97;5052824;28;20469;-50
2023/04/16 09:19:47;;;;;;;32.53;30.00;;;;;;;12.46;100.00;102257.81;5052771;28;20431;-50
2023/04/16 09:22:16;;;;;;;30.27;28.03;;;;;;;12.53;100.00;102253.44;5052915;28;20840;-51
2023/04/16 09:24:45;;;;;;;30.80;28.63;;;;;;;12.67;100.00;102250.03;5047202;28;20502;-46
2023/04/16 09:27:12;;;;;;;31.23;29.03;;;;;;;12.82;100.00;102250.13;5052778;28;20431;-45
2023/04/16 09:29:41;;;;;;;30.23;27.70;;;;;;;12.85;100.00;102252.47;5052088;28;20439;-47
2023/04/16 09:32:10;;;;;;;29.23;27.00;;;;;;;13.07;100.00;102252.53;5052108;28;20450;-50
2023/04/16 09:34:56;;;;;;;28.80;26.80;;;;;;;13.15;100.00;102249.81;5068663;28;20470;-50
2023/04/16 09:37:24;;;;;;;30.37;28.07;;;;;;;13.12;100.00;102254.69;5072841;28;20434;-47
2023/04/16 09:39:56;;;;;;;29.03;26.60;;;;;;;13.07;100.00;102257.03;5072537;28;20480;-46
2023/04/16 09:42:26;;;;;;;29.30;27.10;;;;;;;13.23;100.00;102254.31;5072592;28;20457;-49
2023/04/16 09:44:54;;;;;;;26.63;24.73;;;;;;;13.17;100.00;102255.03;5072108;28;20466;-45
2023/04/16 09:47:26;;;;;;;28.07;26.00;;;;;;;13.21;100.00;102254.47;5072909;28;20436;-44
2023/04/16 09:49:58;;;;;;;29.33;26.97;;;;;;;13.19;100.00;102261.03;5072531;28;20439;-48
2023/04/16 09:52:26;;;;;;;27.33;25.20;;;;;;;13.22;100.00;102263.34;5072603;28;20526;-50
2023/04/16 09:54:55;;;;;;;27.40;25.20;;;;;;;13.20;100.00;102268.06;5072337;28;20476;-50
2023/04/16 09:57:25;;;;;;;28.80;26.53;;;;;;;13.31;100.00;102262.28;5072680;28;20439;-47
2023/04/16 09:59:53;;;;;;;27.53;25.43;;;;;;;13.21;100.00;102275.91;5072550;28;20569;-49
2023/04/16 10:02:22;;;;;;;30.33;27.63;;;;;;;13.12;100.00;102262.72;5072319;28;20947;-44
2023/04/16 10:04:51;;;;;;;28.00;25.60;;;;;;;13.02;100.00;102273.63;5071706;28;20553;-50
2023/04/16 10:07:20;;;;;;;28.27;25.50;;;;;;;12.95;100.00;102270.00;5072542;28;20841;-51
2023/04/16 10:09:49;;;;;;;29.53;27.30;;;;;;;12.94;100.00;102272.84;5072584;28;20427;-48
2023/04/16 10:12:17;;;;;;;26.40;24.70;;;;;;;13.03;100.00;102269.94;5072344;28;20550;-49
2023/04/16 10:14:45;;;;;;;26.70;24.57;;;;;;;13.09;100.00;102271.97;5071976;28;20470;-43
2023/04/16 10:17:16;;;;;;;25.60;23.27;;;;;;;13.19;100.00;102274.41;5071834;28;20423;-44
2023/04/16 10:19:45;;;;;;;26.40;24.07;;;;;;;13.25;100.00;102276.38;5071793;28;20522;-45
2023/04/16 10:22:13;;;;;;;28.23;26.23;;;;;;;13.36;100.00;102267.94;5071499;28;20476;-45
2023/04/16 10:24:41;;;;;;;27.53;24.77;;;;;;;13.51;100.00;102271.50;5071253;28;20458;-46
2023/04/16 10:27:09;;;;;;;28.67;26.43;;;;;;;13.65;100.00;102281.44;5071576;28;20931;-52
2023/04/16 10:29:39;;;;;;;26.67;24.67;;;;;;;13.61;100.00;102280.16;5071312;28;20997;-47
2023/04/16 10:32:06;;;;;;;29.20;27.00;;;;;;;13.69;100.00;102280.09;5071079;28;20516;-46
2023/04/16 10:34:35;;;;;;;26.03;24.13;;;;;;;13.86;100.00;102286.16;5070803;28;20542;-48
2023/04/16 10:37:03;;;;;;;25.50;23.70;;;;;;;13.82;100.00;102284.84;5071492;28;20803;-48
2023/04/16 10:39:33;;;;;;;27.50;25.20;;;;;;;13.89;100.00;102283.09;5071438;28;20537;-49
2023/04/16 10:42:08;;;;;;;28.87;26.60;;;;;;;14.05;100.00;102284.81;5071095;28;20519;-47
2023/04/16 10:44:37;;;;;;;26.50;24.57;;;;;;;14.17;100.00;102286.03;5070952;28;20489;-45
2023/04/16 10:47:11;;;;;;;25.90;23.50;;;;;;;14.04;100.00;102288.50;5071537;28;20491;-47
2023/04/16 10:49:39;;;;;;;28.07;25.80;;;;;;;13.89;100.00;102291.16;5071675;28;20987;-41
2023/04/16 10:52:10;;;;;;;26.00;24.10;;;;;;;13.70;100.00;102295.19;5069902;28;20469;-46
2023/04/16 10:54:39;;;;;;;26.57;24.43;;;;;;;13.54;100.00;102291.75;5071320;28;20458;-48
2023/04/16 10:57:09;;;;;;;25.27;22.97;;;;;;;13.36;100.00;102294.72;5070896;28;20476;-49
2023/04/16 10:59:39;;;;;;;26.97;24.37;;;;;;;13.47;100.00;102302.34;5071860;28;20438;-44
2023/04/16 11:02:08;;;;;;;26.80;24.30;;;;;;;13.37;100.00;102298.25;5068659;28;21032;-47
2023/04/16 11:04:38;;;;;;;25.93;24.07;;;;;;;13.34;100.00;102302.13;5049521;28;20462;-45
2023/04/16 11:07:15;;;;;;;26.97;24.70;;;;;;;13.38;100.00;102299.94;5049000;28;20450;-50
2023/04/16 11:09:52;;;;;;;27.57;25.30;;;;;;;13.15;100.00;102303.41;5049928;28;20442;-45
2023/04/16 11:12:21;;;;;;;27.33;25.03;;;;;;;13.14;100.00;102308.94;5050258;28;20505;-50